sensor_id;sensor_type;location;lat;lon;timestamp;pressure;altitude;pressure_sealevel;temperature;humidity
13478;BME280;12598;62.382;17.344;2023-05-01T00:00:05;101092.06;;;19.62;21.04
13478;BME280;12598;62.382;17.344;2023-05-01T00:01:07;101103.19;;;19.67;21.04
13478;BME280;12598;62.382;17.344;2023-05-01T00:02:09;101099.53;;;19.68;20.73
13478;BME280;12598;62.382;17.344;2023-05-01T00:03:10;101100.50;;;19.67;21.05
13478;BME280;12598;62.382;17.344;2023-05-01T00:04:15;101102.19;;;19.68;20.68
13478;BME280;12598;62.382;17.344;2023-05-01T00:05:17;101101.34;;;19.68;20.72
13478;BME280;12598;62.382;17.344;2023-05-01T00:06:19;101105.03;;;19.67;20.56
13478;BME280;12598;62.382;17.344;2023-05-01T00:07:22;101103.34;;;19.66;20.99
13478;BME280;12598;62.382;17.344;2023-05-01T00:08:25;101091.78;;;19.65;20.58
13478;BME280;12598;62.382;17.344;2023-05-01T00:09:27;101097.13;;;19.65;20.60
13478;BME280;12598;62.382;17.344;2023-05-01T00:10:29;101100.66;;;19.66;20.87
13478;BME280;12598;62.382;17.344;2023-05-01T00:11:31;101107.88;;;19.65;20.64
13478;BME280;12598;62.382;17.344;2023-05-01T00:12:33;101096.06;;;19.58;20.89
13478;BME280;12598;62.382;17.344;2023-05-01T00:13:35;101100.25;;;19.61;20.73
13478;BME280;12598;62.382;17.344;2023-05-01T00:14:37;101108.16;;;19.62;21.03
13478;BME280;12598;62.382;17.344;2023-05-01T00:15:40;101091.69;;;19.57;20.85
13478;BME280;12598;62.382;17.344;2023-05-01T00:16:42;101109.00;;;19.63;21.03
13478;BME280;12598;62.382;17.344;2023-05-01T00:17:44;101087.75;;;19.52;20.78
13478;BME280;12598;62.382;17.344;2023-05-01T00:18:46;101102.94;;;19.61;20.50
13478;BME280;12598;62.382;17.344;2023-05-01T00:19:52;101101.41;;;19.58;21.04
13478;BME280;12598;62.382;17.344;2023-05-01T00:20:55;101092.69;;;19.56;21.09
13478;BME280;12598;62.382;17.344;2023-05-01T00:21:57;101105.63;;;19.61;20.75
13478;BME280;12598;62.382;17.344;2023-05-01T00:22:59;101096.50;;;19.54;21.04
13478;BME280;12598;62.382;17.344;2023-05-01T00:24:01;101106.78;;;19.58;21.26
13478;BME280;12598;62.382;17.344;2023-05-01T00:25:03;101107.78;;;19.57;21.31
13478;BME280;12598;62.382;17.344;2023-05-01T00:26:05;101112.97;;;19.59;20.70
13478;BME280;12598;62.382;17.344;2023-05-01T00:27:06;101104.22;;;19.57;21.07
13478;BME280;12598;62.382;17.344;2023-05-01T00:28:10;101110.47;;;19.57;21.29
13478;BME280;12598;62.382;17.344;2023-05-01T00:29:12;101108.78;;;19.56;21.05
13478;BME280;12598;62.382;17.344;2023-05-01T00:30:13;101113.16;;;19.57;20.81
13478;BME280;12598;62.382;17.344;2023-05-01T00:31:15;101114.13;;;19.56;20.91
13478;BME280;12598;62.382;17.344;2023-05-01T00:32:18;101100.28;;;19.51;20.92
13478;BME280;12598;62.382;17.344;2023-05-01T00:33:20;101115.09;;;19.55;20.84
13478;BME280;12598;62.382;17.344;2023-05-01T00:34:22;101116.81;;;19.56;21.18
13478;BME280;12598;62.382;17.344;2023-05-01T00:35:25;101108.78;;;19.56;21.13
13478;BME280;12598;62.382;17.344;2023-05-01T00:36:27;101098.78;;;19.49;21.20
13478;BME280;12598;62.382;17.344;2023-05-01T00:37:29;101107.06;;;19.55;21.14
13478;BME280;12598;62.382;17.344;2023-05-01T00:38:31;101109.03;;;19.53;21.08
13478;BME280;12598;62.382;17.344;2023-05-01T00:39:32;101120.63;;;19.54;20.90
13478;BME280;12598;62.382;17.344;2023-05-01T00:40:43;101114.41;;;19.53;21.30
13478;BME280;12598;62.382;17.344;2023-05-01T00:41:45;101110.72;;;19.54;20.76
13478;BME280;12598;62.382;17.344;2023-05-01T00:42:47;101118.78;;;19.54;21.21
13478;BME280;12598;62.382;17.344;2023-05-01T00:43:49;101111.19;;;19.50;21.04
13478;BME280;12598;62.382;17.344;2023-05-01T00:44:51;101110.03;;;19.52;20.84
13478;BME280;12598;62.382;17.344;2023-05-01T00:45:53;101118.06;;;19.52;21.09
13478;BME280;12598;62.382;17.344;2023-05-01T00:46:55;101103.84;;;19.52;21.15
13478;BME280;12598;62.382;17.344;2023-05-01T00:48:00;101109.22;;;19.52;20.92
13478;BME280;12598;62.382;17.344;2023-05-01T00:49:03;101107.50;;;19.51;20.94
13478;BME280;12598;62.382;17.344;2023-05-01T00:50:05;101114.69;;;19.50;20.89
13478;BME280;12598;62.382;17.344;2023-05-01T00:51:08;101113.88;;;19.50;20.81
13478;BME280;12598;62.382;17.344;2023-05-01T00:52:10;101113.88;;;19.50;21.29
13478;BME280;12598;62.382;17.344;2023-05-01T00:53:12;101108.63;;;19.48;21.29
13478;BME280;12598;62.382;17.344;2023-05-01T00:54:14;101113.88;;;19.50;20.77
13478;BME280;12598;62.382;17.344;2023-05-01T00:55:16;101106.81;;;19.49;20.84
13478;BME280;12598;62.382;17.344;2023-05-01T00:56:18;101106.81;;;19.49;21.09
13478;BME280;12598;62.382;17.344;2023-05-01T00:57:20;101093.16;;;19.42;20.83
13478;BME280;12598;62.382;17.344;2023-05-01T00:58:22;101098.91;;;19.47;21.43
13478;BME280;12598;62.382;17.344;2023-05-01T00:59:24;101102.44;;;19.48;21.33
13478;BME280;12598;62.382;17.344;2023-05-01T01:00:26;101112.31;;;19.47;21.04
13478;BME280;12598;62.382;17.344;2023-05-01T01:01:28;101106.94;;;19.47;20.99
13478;BME280;12598;62.382;17.344;2023-05-01T01:02:30;101109.63;;;19.47;20.81
13478;BME280;12598;62.382;17.344;2023-05-01T01:03:33;101109.63;;;19.47;21.32
13478;BME280;12598;62.382;17.344;2023-05-01T01:04:35;101110.63;;;19.46;20.96
13478;BME280;12598;62.382;17.344;2023-05-01T01:05:42;101103.56;;;19.45;21.31
13478;BME280;12598;62.382;17.344;2023-05-01T01:07:07;101097.47;;;19.53;20.98
13478;BME280;12598;62.382;17.344;2023-05-01T01:08:23;101096.63;;;19.52;21.21
13478;BME280;12598;62.382;17.344;2023-05-01T01:09:52;101103.25;;;19.58;21.15
13478;BME280;12598;62.382;17.344;2023-05-01T01:11:19;101106.78;;;19.58;21.03
13478;BME280;12598;62.382;17.344;2023-05-01T01:13:45;101100.84;;;19.55;21.16
13478;BME280;12598;62.382;17.344;2023-05-01T01:15:01;101099.16;;;19.54;21.00
13478;BME280;12598;62.382;17.344;2023-05-01T01:16:12;101104.84;;;19.51;20.65
13478;BME280;12598;62.382;17.344;2023-05-01T01:17:26;101103.16;;;19.50;20.91
13478;BME280;12598;62.382;17.344;2023-05-01T01:18:40;101103.28;;;19.48;21.09
13478;BME280;12598;62.382;17.344;2023-05-01T01:20:10;101093.94;;;19.52;21.12
13478;BME280;12598;62.382;17.344;2023-05-01T01:21:27;101101.97;;;19.52;20.73
13478;BME280;12598;62.382;17.344;2023-05-01T01:22:34;101103.97;;;19.50;20.71
13478;BME280;12598;62.382;17.344;2023-05-01T01:23:43;101106.25;;;19.45;20.76
13478;BME280;12598;62.382;17.344;2023-05-01T01:26:32;101105.81;;;19.50;21.28
13478;BME280;12598;62.382;17.344;2023-05-01T01:28:05;101100.28;;;19.51;20.69
13478;BME280;12598;62.382;17.344;2023-05-01T01:29:24;101109.34;;;19.50;20.70
13478;BME280;12598;62.382;17.344;2023-05-01T01:31:14;101071.72;;;19.33;20.83
13478;BME280;12598;62.382;17.344;2023-05-01T01:32:51;101099.16;;;19.54;20.80
13478;BME280;12598;62.382;17.344;2023-05-01T01:35:13;101107.94;;;19.46;20.94
13478;BME280;12598;62.382;17.344;2023-05-01T01:36:21;101108.25;;;19.43;21.13
13478;BME280;12598;62.382;17.344;2023-05-01T01:37:31;101103.34;;;19.39;20.90
13478;BME280;12598;62.382;17.344;2023-05-01T01:38:45;101108.53;;;19.40;20.98
13478;BME280;12598;62.382;17.344;2023-05-01T01:40:10;101104.34;;;19.38;21.06
13478;BME280;12598;62.382;17.344;2023-05-01T01:41:23;101100.66;;;19.39;21.26
13478;BME280;12598;62.382;17.344;2023-05-01T01:42:40;101086.28;;;19.31;21.25
13478;BME280;12598;62.382;17.344;2023-05-01T01:43:57;101103.47;;;19.38;21.19
13478;BME280;12598;62.382;17.344;2023-05-01T01:45:03;101105.47;;;19.36;21.34
13478;BME280;12598;62.382;17.344;2023-05-01T01:46:09;101107.44;;;19.34;21.08
13478;BME280;12598;62.382;17.344;2023-05-01T01:47:11;101105.06;;;19.31;21.25
13478;BME280;12598;62.382;17.344;2023-05-01T01:48:30;101105.75;;;19.33;20.93
13478;BME280;12598;62.382;17.344;2023-05-01T01:49:34;101101.41;;;19.32;20.93
13478;BME280;12598;62.382;17.344;2023-05-01T01:50:38;101105.88;;;19.31;21.05
13478;BME280;12598;62.382;17.344;2023-05-01T01:51:42;101107.88;;;19.29;21.28
13478;BME280;12598;62.382;17.344;2023-05-01T01:52:46;101098.31;;;19.27;21.01
13478;BME280;12598;62.382;17.344;2023-05-01T01:53:52;101103.66;;;19.27;21.39
13478;BME280;12598;62.382;17.344;2023-05-01T01:54:58;101101.00;;;19.27;20.96
13478;BME280;12598;62.382;17.344;2023-05-01T01:56:03;101105.34;;;19.28;21.27
13478;BME280;12598;62.382;17.344;2023-05-01T01:57:08;101104.66;;;19.26;20.97
13478;BME280;12598;62.382;17.344;2023-05-01T01:58:14;101092.84;;;19.19;21.18
13478;BME280;12598;62.382;17.344;2023-05-01T01:59:20;101109.03;;;19.27;21.43
13478;BME280;12598;62.382;17.344;2023-05-01T02:00:24;101111.72;;;19.27;21.14
13478;BME280;12598;62.382;17.344;2023-05-01T02:01:29;101105.66;;;19.25;21.35
13478;BME280;12598;62.382;17.344;2023-05-01T02:02:32;101111.84;;;19.25;20.94
13478;BME280;12598;62.382;17.344;2023-05-01T02:03:35;101113.69;;;19.25;21.17
13478;BME280;12598;62.382;17.344;2023-05-01T02:04:38;101099.59;;;19.23;21.07
13478;BME280;12598;62.382;17.344;2023-05-01T02:05:43;101101.41;;;19.22;21.06
13478;BME280;12598;62.382;17.344;2023-05-01T02:06:47;101113.81;;;19.23;21.03
13478;BME280;12598;62.382;17.344;2023-05-01T02:07:51;101115.69;;;19.23;21.60
13478;BME280;12598;62.382;17.344;2023-05-01T02:08:54;101108.63;;;19.22;21.07
13478;BME280;12598;62.382;17.344;2023-05-01T02:09:58;101105.94;;;19.22;21.13
13478;BME280;12598;62.382;17.344;2023-05-01T02:11:02;101102.41;;;19.21;21.27
13478;BME280;12598;62.382;17.344;2023-05-01T02:12:07;101104.09;;;19.22;21.07
13478;BME280;12598;62.382;17.344;2023-05-01T02:13:09;101110.47;;;19.21;21.47
13478;BME280;12598;62.382;17.344;2023-05-01T02:14:14;101091.69;;;19.12;21.19
13478;BME280;12598;62.382;17.344;2023-05-01T02:15:17;101110.63;;;19.20;21.41
13478;BME280;12598;62.382;17.344;2023-05-01T02:16:21;101100.88;;;19.19;21.12
13478;BME280;12598;62.382;17.344;2023-05-01T02:17:26;101110.63;;;19.20;21.25
13478;BME280;12598;62.382;17.344;2023-05-01T02:18:29;101107.06;;;19.19;21.35
13478;BME280;12598;62.382;17.344;2023-05-01T02:19:33;101116.81;;;19.20;21.18
13478;BME280;12598;62.382;17.344;2023-05-01T02:20:36;101108.94;;;19.19;21.49
13478;BME280;12598;62.382;17.344;2023-05-01T02:21:38;101093.38;;;19.13;21.22
13478;BME280;12598;62.382;17.344;2023-05-01T02:22:42;101107.25;;;19.18;21.16
13478;BME280;12598;62.382;17.344;2023-05-01T02:23:46;101106.25;;;19.19;21.01
13478;BME280;12598;62.382;17.344;2023-05-01T02:24:48;101098.19;;;19.19;21.49
13478;BME280;12598;62.382;17.344;2023-05-01T02:25:51;101093.97;;;19.16;21.20
13478;BME280;12598;62.382;17.344;2023-05-01T02:26:56;101100.19;;;19.17;21.48
13478;BME280;12598;62.382;17.344;2023-05-01T02:28:07;101091.16;;;19.18;21.04
13478;BME280;12598;62.382;17.344;2023-05-01T02:29:09;101092.84;;;19.19;21.09
13478;BME280;12598;62.382;17.344;2023-05-01T02:30:11;101088.00;;;19.13;21.31
13478;BME280;12598;62.382;17.344;2023-05-01T02:31:14;101091.16;;;19.18;21.42
13478;BME280;12598;62.382;17.344;2023-05-01T02:32:16;101091.41;;;19.15;21.16
13478;BME280;12598;62.382;17.344;2023-05-01T02:33:18;101096.66;;;19.16;21.52
13478;BME280;12598;62.382;17.344;2023-05-01T02:34:20;101082.81;;;19.11;21.37
13478;BME280;12598;62.382;17.344;2023-05-01T02:35:22;101093.13;;;19.16;20.99
13478;BME280;12598;62.382;17.344;2023-05-01T02:36:24;101091.69;;;19.12;21.15
13478;BME280;12598;62.382;17.344;2023-05-01T02:37:26;101091.41;;;19.15;21.12
13478;BME280;12598;62.382;17.344;2023-05-01T02:38:29;101084.38;;;19.14;21.53
13478;BME280;12598;62.382;17.344;2023-05-01T02:39:31;101093.13;;;19.16;21.51
13478;BME280;12598;62.382;17.344;2023-05-01T02:40:35;101089.72;;;19.14;21.13
13478;BME280;12598;62.382;17.344;2023-05-01T02:41:39;101075.06;;;19.08;21.42
13478;BME280;12598;62.382;17.344;2023-05-01T02:42:42;101085.19;;;19.14;21.47
13478;BME280;12598;62.382;17.344;2023-05-01T02:43:48;101090.69;;;19.13;21.13
13478;BME280;12598;62.382;17.344;2023-05-01T02:44:56;101083.50;;;19.13;21.36
13478;BME280;12598;62.382;17.344;2023-05-01T02:46:00;101073.91;;;19.11;21.36
13478;BME280;12598;62.382;17.344;2023-05-01T02:47:07;101084.09;;;19.17;21.02
13478;BME280;12598;62.382;17.344;2023-05-01T02:48:17;101085.94;;;19.16;21.41
13478;BME280;12598;62.382;17.344;2023-05-01T02:49:19;101084.09;;;19.17;21.40
13478;BME280;12598;62.382;17.344;2023-05-01T02:50:23;101083.25;;;19.16;21.20
13478;BME280;12598;62.382;17.344;2023-05-01T02:51:27;101085.09;;;19.16;21.51
13478;BME280;12598;62.382;17.344;2023-05-01T02:52:30;101081.69;;;19.14;21.11
13478;BME280;12598;62.382;17.344;2023-05-01T02:53:51;101077.88;;;19.16;21.13
13478;BME280;12598;62.382;17.344;2023-05-01T02:54:56;101080.44;;;19.18;21.38
13478;BME280;12598;62.382;17.344;2023-05-01T02:55:58;101082.41;;;19.16;21.37
13478;BME280;12598;62.382;17.344;2023-05-01T02:57:03;101083.50;;;19.13;21.13
13478;BME280;12598;62.382;17.344;2023-05-01T02:58:05;101081.69;;;19.14;21.29
13478;BME280;12598;62.382;17.344;2023-05-01T02:59:07;101084.50;;;19.12;21.30
13478;BME280;12598;62.382;17.344;2023-05-01T03:00:10;101081.81;;;19.12;21.14
13478;BME280;12598;62.382;17.344;2023-05-01T03:01:14;101074.78;;;19.11;21.37
13478;BME280;12598;62.382;17.344;2023-05-01T03:02:17;101062.25;;;19.02;21.42
13478;BME280;12598;62.382;17.344;2023-05-01T03:03:19;101064.06;;;19.02;21.48
13478;BME280;12598;62.382;17.344;2023-05-01T03:04:21;101079.13;;;19.12;21.22
13478;BME280;12598;62.382;17.344;2023-05-01T03:05:23;101081.94;;;19.11;21.08
13478;BME280;12598;62.382;17.344;2023-05-01T03:06:25;101083.81;;;19.10;21.55
13478;BME280;12598;62.382;17.344;2023-05-01T03:07:29;101084.63;;;19.11;21.16
13478;BME280;12598;62.382;17.344;2023-05-01T03:08:36;101082.66;;;19.13;21.01
13478;BME280;12598;62.382;17.344;2023-05-01T03:09:38;101080.97;;;19.12;21.08
13478;BME280;12598;62.382;17.344;2023-05-01T03:10:40;101080.13;;;19.11;21.19
13478;BME280;12598;62.382;17.344;2023-05-01T03:11:43;101072.22;;;19.10;21.48
13478;BME280;12598;62.382;17.344;2023-05-01T03:12:45;101077.56;;;19.10;21.53
13478;BME280;12598;62.382;17.344;2023-05-01T03:13:47;101074.91;;;19.10;21.20
13478;BME280;12598;62.382;17.344;2023-05-01T03:14:49;101072.22;;;19.10;21.34
13478;BME280;12598;62.382;17.344;2023-05-01T03:15:51;101065.88;;;19.11;21.20
13478;BME280;12598;62.382;17.344;2023-05-01T03:16:54;101066.84;;;19.10;21.47
13478;BME280;12598;62.382;17.344;2023-05-01T03:17:56;101057.72;;;19.03;21.45
13478;BME280;12598;62.382;17.344;2023-05-01T03:18:58;101072.22;;;19.10;21.10
13478;BME280;12598;62.382;17.344;2023-05-01T03:20:00;101064.34;;;19.08;21.26
13478;BME280;12598;62.382;17.344;2023-05-01T03:21:03;101070.69;;;19.07;21.22
13478;BME280;12598;62.382;17.344;2023-05-01T03:22:05;101068.84;;;19.08;21.50
13478;BME280;12598;62.382;17.344;2023-05-01T03:23:07;101067.16;;;19.07;21.11
13478;BME280;12598;62.382;17.344;2023-05-01T03:24:09;101074.19;;;19.08;21.27
13478;BME280;12598;62.382;17.344;2023-05-01T03:25:12;101071.69;;;19.06;21.07
13478;BME280;12598;62.382;17.344;2023-05-01T03:26:14;101064.47;;;19.07;21.37
13478;BME280;12598;62.382;17.344;2023-05-01T03:27:16;101052.81;;;18.98;21.50
13478;BME280;12598;62.382;17.344;2023-05-01T03:28:18;101060.09;;;19.06;21.34
13478;BME280;12598;62.382;17.344;2023-05-01T03:29:21;101066.16;;;19.08;21.03
13478;BME280;12598;62.382;17.344;2023-05-01T03:30:23;101060.09;;;19.06;21.30
13478;BME280;12598;62.382;17.344;2023-05-01T03:31:26;101056.03;;;19.02;21.42
13478;BME280;12598;62.382;17.344;2023-05-01T03:32:30;101064.47;;;19.07;21.37
13478;BME280;12598;62.382;17.344;2023-05-01T03:33:33;101067.16;;;19.07;21.57
13478;BME280;12598;62.382;17.344;2023-05-01T03:34:35;101062.78;;;19.06;21.60
13478;BME280;12598;62.382;17.344;2023-05-01T03:35:37;101060.09;;;19.06;21.24
13478;BME280;12598;62.382;17.344;2023-05-01T03:36:39;101051.66;;;19.01;21.21
13478;BME280;12598;62.382;17.344;2023-05-01T03:37:41;101061.78;;;19.07;21.24
13478;BME280;12598;62.382;17.344;2023-05-01T03:38:47;101053.34;;;19.02;21.43
13478;BME280;12598;62.382;17.344;2023-05-01T03:40:08;101061.19;;;19.13;21.04
13478;BME280;12598;62.382;17.344;2023-05-01T03:41:28;101055.44;;;19.08;21.36
13478;BME280;12598;62.382;17.344;2023-05-01T03:42:50;101066.34;;;19.16;21.40
13478;BME280;12598;62.382;17.344;2023-05-01T03:43:56;101068.28;;;19.14;21.12
13478;BME280;12598;62.382;17.344;2023-05-01T03:45:18;101068.03;;;19.17;21.05
13478;BME280;12598;62.382;17.344;2023-05-01T03:46:19;101067.44;;;19.13;21.35
13478;BME280;12598;62.382;17.344;2023-05-01T03:47:22;101065.03;;;19.10;21.26
13478;BME280;12598;62.382;17.344;2023-05-01T03:48:24;101064.19;;;19.10;21.06
13478;BME280;12598;62.382;17.344;2023-05-01T03:49:26;101061.66;;;19.08;21.46
13478;BME280;12598;62.382;17.344;2023-05-01T03:50:29;101057.44;;;19.06;21.23
13478;BME280;12598;62.382;17.344;2023-05-01T03:51:30;101069.00;;;19.06;21.42
13478;BME280;12598;62.382;17.344;2023-05-01T03:52:33;101064.47;;;19.07;21.48
13478;BME280;12598;62.382;17.344;2023-05-01T03:53:35;101058.13;;;19.08;21.29
13478;BME280;12598;62.382;17.344;2023-05-01T03:54:39;101064.34;;;19.08;21.16
13478;BME280;12598;62.382;17.344;2023-05-01T03:55:54;101067.56;;;19.12;21.29
13478;BME280;12598;62.382;17.344;2023-05-01T03:56:55;101062.19;;;19.12;21.43
13478;BME280;12598;62.382;17.344;2023-05-01T03:57:59;101064.88;;;19.12;21.32
13478;BME280;12598;62.382;17.344;2023-05-01T03:59:01;101063.19;;;19.11;21.20
13478;BME280;12598;62.382;17.344;2023-05-01T04:00:03;101063.19;;;19.11;21.50
13478;BME280;12598;62.382;17.344;2023-05-01T04:01:15;101058.97;;;19.08;21.37
13478;BME280;12598;62.382;17.344;2023-05-01T04:02:18;101063.88;;;19.13;21.26
13478;BME280;12598;62.382;17.344;2023-05-01T04:03:20;101058.53;;;19.13;21.26
13478;BME280;12598;62.382;17.344;2023-05-01T04:04:25;101065.72;;;19.12;21.04
13478;BME280;12598;62.382;17.344;2023-05-01T04:05:30;101072.78;;;19.13;21.09
13478;BME280;12598;62.382;17.344;2023-05-01T04:06:35;101058.97;;;19.08;21.15
13478;BME280;12598;62.382;17.344;2023-05-01T04:07:38;101069.25;;;19.13;21.17
13478;BME280;12598;62.382;17.344;2023-05-01T04:08:40;101065.59;;;19.14;21.17
13478;BME280;12598;62.382;17.344;2023-05-01T04:09:41;101071.91;;;19.13;21.32
13478;BME280;12598;62.382;17.344;2023-05-01T04:10:44;101063.88;;;19.13;21.50
13478;BME280;12598;62.382;17.344;2023-05-01T04:11:46;101065.59;;;19.14;21.44
13478;BME280;12598;62.382;17.344;2023-05-01T04:12:48;101069.13;;;19.14;21.30
13478;BME280;12598;62.382;17.344;2023-05-01T04:13:50;101066.44;;;19.14;21.08
13478;BME280;12598;62.382;17.344;2023-05-01T04:14:52;101064.59;;;19.15;21.11
13478;BME280;12598;62.382;17.344;2023-05-01T04:15:55;101056.69;;;19.13;21.11
13478;BME280;12598;62.382;17.344;2023-05-01T04:17:00;101073.38;;;19.17;21.61
13478;BME280;12598;62.382;17.344;2023-05-01T04:18:06;101059.25;;;19.15;21.28
13478;BME280;12598;62.382;17.344;2023-05-01T04:19:08;101072.22;;;19.19;21.41
13478;BME280;12598;62.382;17.344;2023-05-01T04:20:15;101069.25;;;19.22;21.17
13478;BME280;12598;62.382;17.344;2023-05-01T04:21:19;101076.47;;;19.22;21.43
13478;BME280;12598;62.382;17.344;2023-05-01T04:22:24;101072.78;;;19.23;21.32
13478;BME280;12598;62.382;17.344;2023-05-01T04:23:26;101070.94;;;19.23;21.16
13478;BME280;12598;62.382;17.344;2023-05-01T04:24:31;101054.75;;;19.15;21.51
13478;BME280;12598;62.382;17.344;2023-05-01T04:25:33;101077.00;;;19.25;21.13
13478;BME280;12598;62.382;17.344;2023-05-01T04:26:41;101072.31;;;19.27;21.40
13478;BME280;12598;62.382;17.344;2023-05-01T04:27:43;101063.47;;;19.27;21.11
13478;BME280;12598;62.382;17.344;2023-05-01T04:28:48;101071.34;;;19.28;21.32
13478;BME280;12598;62.382;17.344;2023-05-01T04:29:55;101053.72;;;19.26;21.42
13478;BME280;12598;62.382;17.344;2023-05-01T04:30:58;101058.63;;;19.30;21.27
13478;BME280;12598;62.382;17.344;2023-05-01T04:32:01;101062.16;;;19.31;21.28
13478;BME280;12598;62.382;17.344;2023-05-01T04:33:03;101062.16;;;19.31;21.34
13478;BME280;12598;62.382;17.344;2023-05-01T04:34:12;101049.34;;;19.25;21.03
13478;BME280;12598;62.382;17.344;2023-05-01T04:35:14;101061.88;;;19.34;21.64
13478;BME280;12598;62.382;17.344;2023-05-01T04:36:18;101060.88;;;19.35;21.24
13478;BME280;12598;62.382;17.344;2023-05-01T04:37:20;101065.38;;;19.34;21.50
13478;BME280;12598;62.382;17.344;2023-05-01T04:38:22;101051.75;;;19.28;21.53
13478;BME280;12598;62.382;17.344;2023-05-01T04:39:26;101064.41;;;19.35;21.16
13478;BME280;12598;62.382;17.344;2023-05-01T04:40:30;101066.94;;;19.37;21.55
13478;BME280;12598;62.382;17.344;2023-05-01T04:41:33;101057.88;;;19.38;21.38
13478;BME280;12598;62.382;17.344;2023-05-01T04:42:35;101056.19;;;19.37;20.96
13478;BME280;12598;62.382;17.344;2023-05-01T04:43:37;101053.53;;;19.37;21.48
13478;BME280;12598;62.382;17.344;2023-05-01T04:44:40;101051.53;;;19.38;20.92
13478;BME280;12598;62.382;17.344;2023-05-01T04:45:43;101057.75;;;19.39;20.96
13478;BME280;12598;62.382;17.344;2023-05-01T04:46:45;101062.13;;;19.40;21.37
13478;BME280;12598;62.382;17.344;2023-05-01T04:47:47;101059.44;;;19.40;21.21
13478;BME280;12598;62.382;17.344;2023-05-01T04:48:49;101056.91;;;19.38;21.55
13478;BME280;12598;62.382;17.344;2023-05-01T04:49:51;101054.91;;;19.40;21.49
13478;BME280;12598;62.382;17.344;2023-05-01T04:50:53;101062.94;;;19.40;21.52
13478;BME280;12598;62.382;17.344;2023-05-01T04:51:57;101054.09;;;19.40;21.51
13478;BME280;12598;62.382;17.344;2023-05-01T04:53:06;101061.81;;;19.43;21.14
13478;BME280;12598;62.382;17.344;2023-05-01T04:54:10;101060.97;;;19.42;20.97
13478;BME280;12598;62.382;17.344;2023-05-01T04:55:13;101059.97;;;19.43;21.20
13478;BME280;12598;62.382;17.344;2023-05-01T04:56:31;101050.09;;;19.44;21.25
13478;BME280;12598;62.382;17.344;2023-05-01T04:57:34;101060.53;;;19.47;20.87
13478;BME280;12598;62.382;17.344;2023-05-01T04:58:40;101051.53;;;19.38;21.23
13478;BME280;12598;62.382;17.344;2023-05-01T04:59:46;101048.94;;;19.46;20.83
13478;BME280;12598;62.382;17.344;2023-05-01T05:00:48;101058.97;;;19.44;21.10
13478;BME280;12598;62.382;17.344;2023-05-01T05:01:54;101058.00;;;19.45;21.31
13478;BME280;12598;62.382;17.344;2023-05-01T05:02:56;101059.84;;;19.45;21.34
13478;BME280;12598;62.382;17.344;2023-05-01T05:03:59;101066.19;;;19.44;21.33
13478;BME280;12598;62.382;17.344;2023-05-01T05:05:03;101059.97;;;19.43;21.07
13478;BME280;12598;62.382;17.344;2023-05-01T05:06:05;101066.19;;;19.44;20.92
13478;BME280;12598;62.382;17.344;2023-05-01T05:07:07;101061.66;;;19.44;21.05
13478;BME280;12598;62.382;17.344;2023-05-01T05:08:28;101056.69;;;19.49;20.83
13478;BME280;12598;62.382;17.344;2023-05-01T05:09:40;101055.69;;;19.50;20.91
13478;BME280;12598;62.382;17.344;2023-05-01T05:10:42;101060.06;;;19.51;21.16
13478;BME280;12598;62.382;17.344;2023-05-01T05:11:57;101057.06;;;19.54;20.97
13478;BME280;12598;62.382;17.344;2023-05-01T05:12:59;101056.25;;;19.54;21.00
13478;BME280;12598;62.382;17.344;2023-05-01T05:14:01;101065.00;;;19.56;20.87
13478;BME280;12598;62.382;17.344;2023-05-01T05:15:04;101066.81;;;19.55;20.92
13478;BME280;12598;62.382;17.344;2023-05-01T05:16:06;101063.88;;;19.58;20.71
13478;BME280;12598;62.382;17.344;2023-05-01T05:17:08;101054.25;;;19.56;20.75
13478;BME280;12598;62.382;17.344;2023-05-01T05:18:10;101061.56;;;19.63;20.80
13478;BME280;12598;62.382;17.344;2023-05-01T05:19:12;101063.09;;;19.66;20.72
13478;BME280;12598;62.382;17.344;2023-05-01T05:20:16;101066.34;;;19.69;20.72
13478;BME280;12598;62.382;17.344;2023-05-01T05:21:18;101051.38;;;19.67;20.54
13478;BME280;12598;62.382;17.344;2023-05-01T05:22:24;101062.72;;;19.78;20.53
13478;BME280;12598;62.382;17.344;2023-05-01T05:23:51;101051.38;;;19.84;20.54
13478;BME280;12598;62.382;17.344;2023-05-01T05:24:54;101058.81;;;19.90;20.34
13478;BME280;12598;62.382;17.344;2023-05-01T05:26:00;101049.66;;;19.93;20.53
13478;BME280;12598;62.382;17.344;2023-05-01T05:27:02;101053.16;;;19.93;20.25
13478;BME280;12598;62.382;17.344;2023-05-01T05:28:04;101058.22;;;19.96;20.35
13478;BME280;12598;62.382;17.344;2023-05-01T05:29:06;101049.88;;;19.99;20.68
13478;BME280;12598;62.382;17.344;2023-05-01T05:30:08;101054.13;;;20.02;20.88
13478;BME280;12598;62.382;17.344;2023-05-01T05:31:11;101063.41;;;20.07;20.18
13478;BME280;12598;62.382;17.344;2023-05-01T05:32:13;101049.31;;;20.05;20.19
13478;BME280;12598;62.382;17.344;2023-05-01T05:33:15;101046.44;;;20.07;20.39
13478;BME280;12598;62.382;17.344;2023-05-01T05:34:17;101052.75;;;20.15;20.40
13478;BME280;12598;62.382;17.344;2023-05-01T05:35:20;101062.88;;;20.21;19.90
13478;BME280;12598;62.382;17.344;2023-05-01T05:36:22;101056.38;;;20.24;20.46
13478;BME280;12598;62.382;17.344;2023-05-01T05:37:26;101050.13;;;20.23;19.71
13478;BME280;12598;62.382;17.344;2023-05-01T05:38:28;101061.25;;;20.28;20.36
13478;BME280;12598;62.382;17.344;2023-05-01T05:39:31;101050.88;;;20.33;20.33